sensor_id;sensor_type;location;lat;lon;timestamp;pressure;altitude;pressure_sealevel;temperature;humidity
8366;BME280;4220;42.502;24.188;2022-12-20T00:01:20;97190.38;;;1.71;100.00
8366;BME280;4220;42.502;24.188;2022-12-20T00:03:49;97186.78;;;1.72;100.00
8366;BME280;4220;42.502;24.188;2022-12-20T00:06:16;97177.72;;;1.54;100.00
8366;BME280;4220;42.502;24.188;2022-12-20T00:08:43;97187.78;;;1.48;100.00
8366;BME280;4220;42.502;24.188;2022-12-20T00:11:12;97185.53;;;1.43;100.00
8366;BME280;4220;42.502;24.188;2022-12-20T00:13:39;97157.72;;;1.07;100.00
8366;BME280;4220;42.502;24.188;2022-12-20T00:16:07;97182.81;;;1.21;100.00
8366;BME280;4220;42.502;24.188;2022-12-20T00:18:34;97189.25;;;1.17;100.00
8366;BME280;4220;42.502;24.188;2022-12-20T00:21:03;97190.34;;;1.02;100.00
8366;BME280;4220;42.502;24.188;2022-12-20T00:23:30;97191.63;;;0.96;100.00
8366;BME280;4220;42.502;24.188;2022-12-20T00:26:02;97192.63;;;1.06;100.00
8366;BME280;4220;42.502;24.188;2022-12-20T00:28:31;97183.00;;;1.07;100.00
8366;BME280;4220;42.502;24.188;2022-12-20T00:30:58;97194.69;;;1.14;100.00
8366;BME280;4220;42.502;24.188;2022-12-20T00:33:25;97193.13;;;1.11;100.00
8366;BME280;4220;42.502;24.188;2022-12-20T00:35:54;97196.69;;;1.10;100.00
8366;BME280;4220;42.502;24.188;2022-12-20T00:38:21;97199.75;;;1.04;100.00
8366;BME280;4220;42.502;24.188;2022-12-20T00:40:58;97189.16;;;1.06;100.00
8366;BME280;4220;42.502;24.188;2022-12-20T00:43:25;97188.44;;;1.04;100.00
8366;BME280;4220;42.502;24.188;2022-12-20T00:45:53;97175.69;;;0.88;100.00
8366;BME280;4220;42.502;24.188;2022-12-20T00:48:20;97181.47;;;0.81;100.00
8366;BME280;4220;42.502;24.188;2022-12-20T00:50:47;97182.69;;;0.88;100.00
8366;BME280;4220;42.502;24.188;2022-12-20T00:53:14;97160.31;;;0.84;100.00
8366;BME280;4220;42.502;24.188;2022-12-20T00:55:41;97180.97;;;0.99;100.00
8366;BME280;4220;42.502;24.188;2022-12-20T00:58:09;97170.34;;;0.90;100.00
8366;BME280;4220;42.502;24.188;2022-12-20T01:00:36;97125.22;;;0.64;100.00
8366;BME280;4220;42.502;24.188;2022-12-20T01:03:05;97178.34;;;0.99;100.00
8366;BME280;4220;42.502;24.188;2022-12-20T01:05:32;97179.22;;;1.11;100.00
8366;BME280;4220;42.502;24.188;2022-12-20T01:07:59;97178.50;;;1.09;100.00
8366;BME280;4220;42.502;24.188;2022-12-20T01:10:26;97174.00;;;1.11;100.00
8366;BME280;4220;42.502;24.188;2022-12-20T01:12:53;97173.75;;;1.03;100.00
8366;BME280;4220;42.502;24.188;2022-12-20T01:15:20;97168.66;;;0.89;100.00
8366;BME280;4220;42.502;24.188;2022-12-20T01:17:47;97164.69;;;0.96;100.00
8366;BME280;4220;42.502;24.188;2022-12-20T01:20:15;97167.22;;;1.08;100.00
8366;BME280;4220;42.502;24.188;2022-12-20T01:22:42;97160.16;;;1.21;100.00
8366;BME280;4220;42.502;24.188;2022-12-20T01:25:09;97164.94;;;1.27;100.00
8366;BME280;4220;42.502;24.188;2022-12-20T01:27:36;97146.22;;;1.10;100.00
8366;BME280;4220;42.502;24.188;2022-12-20T01:30:03;97153.72;;;1.14;100.00
8366;BME280;4220;42.502;24.188;2022-12-20T01:32:30;97155.44;;;1.03;100.00
8366;BME280;4220;42.502;24.188;2022-12-20T01:34:57;97160.84;;;1.12;100.00
8366;BME280;4220;42.502;24.188;2022-12-20T01:37:25;97152.44;;;1.20;100.00
8366;BME280;4220;42.502;24.188;2022-12-20T01:39:52;97136.41;;;1.01;100.00
8366;BME280;4220;42.502;24.188;2022-12-20T01:42:19;97126.44;;;0.95;100.00
8366;BME280;4220;42.502;24.188;2022-12-20T01:44:57;97145.44;;;0.97;100.00
8366;BME280;4220;42.502;24.188;2022-12-20T01:47:25;97137.72;;;0.95;100.00
8366;BME280;4220;42.502;24.188;2022-12-20T01:49:53;97147.72;;;0.78;100.00
8366;BME280;4220;42.502;24.188;2022-12-20T01:52:27;97141.28;;;0.71;100.00
8366;BME280;4220;42.502;24.188;2022-12-20T01:54:59;97136.78;;;0.73;100.00
8366;BME280;4220;42.502;24.188;2022-12-20T01:57:31;97131.34;;;0.76;100.00
8366;BME280;4220;42.502;24.188;2022-12-20T02:00:00;97133.41;;;0.83;100.00
8366;BME280;4220;42.502;24.188;2022-12-20T02:02:31;97125.50;;;0.72;100.00
8366;BME280;4220;42.502;24.188;2022-12-20T02:04:58;97121.28;;;0.58;100.00
8366;BME280;4220;42.502;24.188;2022-12-20T02:07:29;97119.72;;;0.56;100.00
8366;BME280;4220;42.502;24.188;2022-12-20T02:09:57;97100.53;;;0.44;100.00
8366;BME280;4220;42.502;24.188;2022-12-20T02:12:30;97107.69;;;0.66;100.00
8366;BME280;4220;42.502;24.188;2022-12-20T02:15:10;97113.50;;;0.70;100.00
8366;BME280;4220;42.502;24.188;2022-12-20T02:17:48;97110.88;;;0.70;100.00
8366;BME280;4220;42.502;24.188;2022-12-20T02:20:39;97113.84;;;0.65;100.00
8366;BME280;4220;42.502;24.188;2022-12-20T02:26:46;97105.97;;;0.54;100.00
8366;BME280;4220;42.502;24.188;2022-12-20T02:29:25;97106.06;;;0.52;100.00
8366;BME280;4220;42.502;24.188;2022-12-20T02:32:03;97107.94;;;0.50;100.00
8366;BME280;4220;42.502;24.188;2022-12-20T02:34:36;97105.22;;;0.52;100.00
8366;BME280;4220;42.502;24.188;2022-12-20T02:37:03;97104.66;;;0.59;100.00
8366;BME280;4220;42.502;24.188;2022-12-20T02:39:32;97101.84;;;0.39;100.00
8366;BME280;4220;42.502;24.188;2022-12-20T02:42:04;97089.34;;;0.31;100.00
8366;BME280;4220;42.502;24.188;2022-12-20T02:44:33;97098.00;;;0.32;100.00
8366;BME280;4220;42.502;24.188;2022-12-20T02:47:23;97092.25;;;0.39;100.00
8366;BME280;4220;42.502;24.188;2022-12-20T02:49:53;97085.94;;;0.42;100.00
8366;BME280;4220;42.502;24.188;2022-12-20T02:52:23;97081.34;;;0.45;100.00
8366;BME280;4220;42.502;24.188;2022-12-20T02:54:55;97041.47;;;0.20;100.00
8366;BME280;4220;42.502;24.188;2022-12-20T02:57:28;97076.50;;;0.52;100.00
8366;BME280;4220;42.502;24.188;2022-12-20T03:00:02;97069.22;;;0.44;100.00
8366;BME280;4220;42.502;24.188;2022-12-20T03:02:32;97072.03;;;0.54;100.00
8366;BME280;4220;42.502;24.188;2022-12-20T03:05:21;97056.44;;;0.52;100.00
8366;BME280;4220;42.502;24.188;2022-12-20T03:07:49;97056.03;;;0.58;100.00
8366;BME280;4220;42.502;24.188;2022-12-20T03:10:16;97058.66;;;0.70;100.00
8366;BME280;4220;42.502;24.188;2022-12-20T03:12:43;97063.66;;;0.73;100.00
8366;BME280;4220;42.502;24.188;2022-12-20T03:15:10;97063.44;;;0.76;100.00
8366;BME280;4220;42.502;24.188;2022-12-20T03:17:39;97058.22;;;0.76;100.00
8366;BME280;4220;42.502;24.188;2022-12-20T03:20:08;97065.84;;;0.79;100.00
8366;BME280;4220;42.502;24.188;2022-12-20T03:22:35;97066.22;;;0.85;100.00
8366;BME280;4220;42.502;24.188;2022-12-20T03:25:03;97070.81;;;0.82;100.00
8366;BME280;4220;42.502;24.188;2022-12-20T03:27:30;97065.50;;;0.83;100.00
8366;BME280;4220;42.502;24.188;2022-12-20T03:29:57;97065.50;;;0.83;100.00
8366;BME280;4220;42.502;24.188;2022-12-20T03:32:24;97068.34;;;0.91;100.00
8366;BME280;4220;42.502;24.188;2022-12-20T03:34:52;97072.50;;;0.94;100.00
8366;BME280;4220;42.502;24.188;2022-12-20T03:37:19;97072.63;;;0.92;100.00
8366;BME280;4220;42.502;24.188;2022-12-20T03:39:46;97076.53;;;0.87;100.00
8366;BME280;4220;42.502;24.188;2022-12-20T03:42:12;97058.81;;;0.79;100.00
8366;BME280;4220;42.502;24.188;2022-12-20T03:44:39;97079.13;;;0.87;100.00
8366;BME280;4220;42.502;24.188;2022-12-20T03:47:06;97071.31;;;0.87;100.00
8366;BME280;4220;42.502;24.188;2022-12-20T03:49:33;97072.28;;;0.86;100.00
8366;BME280;4220;42.502;24.188;2022-12-20T03:52:01;97070.09;;;0.80;100.00
8366;BME280;4220;42.502;24.188;2022-12-20T03:54:28;97083.78;;;0.83;100.00
8366;BME280;4220;42.502;24.188;2022-12-20T03:56:55;97074.59;;;0.78;100.00
8366;BME280;4220;42.502;24.188;2022-12-20T03:59:21;97080.88;;;0.75;100.00
8366;BME280;4220;42.502;24.188;2022-12-20T04:01:48;97078.50;;;0.72;100.00
8366;BME280;4220;42.502;24.188;2022-12-20T04:04:15;97070.22;;;0.54;100.00
8366;BME280;4220;42.502;24.188;2022-12-20T04:06:42;97078.06;;;0.54;100.00
8366;BME280;4220;42.502;24.188;2022-12-20T04:09:10;97073.78;;;0.53;100.00
8366;BME280;4220;42.502;24.188;2022-12-20T04:11:37;97080.16;;;0.49;100.00
8366;BME280;4220;42.502;24.188;2022-12-20T04:14:05;97072.94;;;0.53;100.00
8366;BME280;4220;42.502;24.188;2022-12-20T04:16:32;97079.72;;;0.55;100.00
8366;BME280;4220;42.502;24.188;2022-12-20T04:18:59;97081.50;;;0.55;100.00
8366;BME280;4220;42.502;24.188;2022-12-20T04:21:27;97079.59;;;0.57;100.00
8366;BME280;4220;42.502;24.188;2022-12-20T04:23:55;97057.63;;;0.48;100.00
8366;BME280;4220;42.502;24.188;2022-12-20T04:26:24;97073.06;;;0.51;100.00
8366;BME280;4220;42.502;24.188;2022-12-20T04:28:51;97068.56;;;0.53;100.00
8366;BME280;4220;42.502;24.188;2022-12-20T04:31:18;97022.63;;;0.27;100.00
8366;BME280;4220;42.502;24.188;2022-12-20T04:33:45;97076.91;;;0.58;100.00
8366;BME280;4220;42.502;24.188;2022-12-20T04:36:13;97068.09;;;0.59;100.00
8366;BME280;4220;42.502;24.188;2022-12-20T04:38:41;97069.91;;;0.59;100.00
8366;BME280;4220;42.502;24.188;2022-12-20T04:41:07;97033.56;;;0.32;100.00
8366;BME280;4220;42.502;24.188;2022-12-20T04:43:36;97075.56;;;0.53;100.00
8366;BME280;4220;42.502;24.188;2022-12-20T04:46:03;97082.19;;;0.46;100.00
8366;BME280;4220;42.502;24.188;2022-12-20T04:48:30;97082.44;;;0.30;100.00
8366;BME280;4220;42.502;24.188;2022-12-20T04:50:57;97073.59;;;0.20;100.00
8366;BME280;4220;42.502;24.188;2022-12-20T04:53:23;97068.31;;;0.09;100.00
8366;BME280;4220;42.502;24.188;2022-12-20T04:56:08;97075.97;;;-0.01;100.00
8366;BME280;4220;42.502;24.188;2022-12-20T04:58:36;97074.84;;;-0.09;100.00
8366;BME280;4220;42.502;24.188;2022-12-20T05:01:03;97076.94;;;-0.14;100.00
8366;BME280;4220;42.502;24.188;2022-12-20T05:03:30;97071.13;;;-0.18;100.00
8366;BME280;4220;42.502;24.188;2022-12-20T05:05:57;97070.78;;;-0.13;100.00
8366;BME280;4220;42.502;24.188;2022-12-20T05:08:24;97070.88;;;-0.15;100.00
8366;BME280;4220;42.502;24.188;2022-12-20T05:10:51;97064.16;;;-0.42;100.00
8366;BME280;4220;42.502;24.188;2022-12-20T05:13:18;97080.31;;;-0.50;100.00
8366;BME280;4220;42.502;24.188;2022-12-20T05:15:49;97071.56;;;-0.49;100.00
8366;BME280;4220;42.502;24.188;2022-12-20T05:18:17;97071.47;;;-0.47;100.00
8366;BME280;4220;42.502;24.188;2022-12-20T05:20:44;96980.72;;;-1.04;100.00
8366;BME280;4220;42.502;24.188;2022-12-20T05:23:11;97077.53;;;-0.47;100.00
8366;BME280;4220;42.502;24.188;2022-12-20T05:25:55;97066.97;;;-0.45;100.00
8366;BME280;4220;42.502;24.188;2022-12-20T05:28:40;97076.34;;;-0.55;100.00
8366;BME280;4220;42.502;24.188;2022-12-20T05:31:08;97078.56;;;-0.62;100.00
8366;BME280;4220;42.502;24.188;2022-12-20T05:33:35;97068.22;;;-0.76;100.00
8366;BME280;4220;42.502;24.188;2022-12-20T05:36:02;97082.41;;;-0.80;100.00
8366;BME280;4220;42.502;24.188;2022-12-20T05:38:28;97077.19;;;-0.93;100.00
8366;BME280;4220;42.502;24.188;2022-12-20T05:40:55;97084.06;;;-0.92;100.00
8366;BME280;4220;42.502;24.188;2022-12-20T05:43:22;97077.72;;;-0.88;100.00
8366;BME280;4220;42.502;24.188;2022-12-20T05:45:50;97090.53;;;-0.85;100.00
8366;BME280;4220;42.502;24.188;2022-12-20T05:48:19;97083.22;;;-1.05;100.00
8366;BME280;4220;42.502;24.188;2022-12-20T05:50:46;97080.75;;;-0.94;100.00
8366;BME280;4220;42.502;24.188;2022-12-20T05:53:14;97078.03;;;-0.80;100.00
8366;BME280;4220;42.502;24.188;2022-12-20T05:55:43;97075.94;;;-0.75;100.00
8366;BME280;4220;42.502;24.188;2022-12-20T05:58:10;97067.81;;;-0.83;100.00
8366;BME280;4220;42.502;24.188;2022-12-20T06:00:38;97075.53;;;-0.69;100.00
8366;BME280;4220;42.502;24.188;2022-12-20T06:03:06;97076.28;;;-0.67;100.00
8366;BME280;4220;42.502;24.188;2022-12-20T06:05:35;97074.91;;;-0.72;100.00
8366;BME280;4220;42.502;24.188;2022-12-20T06:08:02;97021.53;;;-1.17;100.00
8366;BME280;4220;42.502;24.188;2022-12-20T06:10:30;97075.59;;;-1.08;100.00
8366;BME280;4220;42.502;24.188;2022-12-20T06:12:56;97067.78;;;-1.08;100.00
8366;BME280;4220;42.502;24.188;2022-12-20T06:15:24;97064.06;;;-1.04;100.00
8366;BME280;4220;42.502;24.188;2022-12-20T06:17:51;97072.19;;;-1.08;100.00
8366;BME280;4220;42.502;24.188;2022-12-20T06:20:18;97070.09;;;-1.16;100.00
8366;BME280;4220;42.502;24.188;2022-12-20T06:22:46;97078.69;;;-1.28;100.00
8366;BME280;4220;42.502;24.188;2022-12-20T06:25:13;97074.94;;;-1.24;100.00
8366;BME280;4220;42.502;24.188;2022-12-20T06:27:40;97075.44;;;-1.32;100.00
8366;BME280;4220;42.502;24.188;2022-12-20T06:30:08;97066.06;;;-1.34;100.00
8366;BME280;4220;42.502;24.188;2022-12-20T06:32:35;97071.31;;;-1.21;100.00
8366;BME280;4220;42.502;24.188;2022-12-20T06:35:03;97072.25;;;-1.10;100.00
8366;BME280;4220;42.502;24.188;2022-12-20T06:37:30;97076.56;;;-0.96;100.00
8366;BME280;4220;42.502;24.188;2022-12-20T06:39:59;97072.63;;;-0.89;100.00
8366;BME280;4220;42.502;24.188;2022-12-20T06:42:25;97066.56;;;-0.90;100.00
8366;BME280;4220;42.502;24.188;2022-12-20T06:44:52;97069.78;;;-0.99;100.00
8366;BME280;4220;42.502;24.188;2022-12-20T06:47:19;97067.06;;;-0.97;100.00
8366;BME280;4220;42.502;24.188;2022-12-20T06:49:46;97061.50;;;-1.18;100.00
8366;BME280;4220;42.502;24.188;2022-12-20T06:52:13;97054.13;;;-1.24;100.00
8366;BME280;4220;42.502;24.188;2022-12-20T06:54:40;97065.41;;;-1.11;100.00
8366;BME280;4220;42.502;24.188;2022-12-20T06:57:08;97020.25;;;-1.37;100.00
8366;BME280;4220;42.502;24.188;2022-12-20T06:59:35;97072.25;;;-1.10;100.00
8366;BME280;4220;42.502;24.188;2022-12-20T07:02:02;97064.47;;;-0.97;100.00
8366;BME280;4220;42.502;24.188;2022-12-20T07:04:28;97063.31;;;-0.81;100.00
8366;BME280;4220;42.502;24.188;2022-12-20T07:06:55;97060.63;;;-0.67;100.00
8366;BME280;4220;42.502;24.188;2022-12-20T07:09:22;97050.41;;;-0.57;100.00
8366;BME280;4220;42.502;24.188;2022-12-20T07:11:49;97055.91;;;-0.49;100.00
8366;BME280;4220;42.502;24.188;2022-12-20T07:14:18;97050.28;;;-0.43;100.00
8366;BME280;4220;42.502;24.188;2022-12-20T07:16:44;97052.38;;;-0.35;100.00
8366;BME280;4220;42.502;24.188;2022-12-20T07:19:11;97051.72;;;-0.26;100.00
8366;BME280;4220;42.502;24.188;2022-12-20T07:21:39;97051.19;;;-0.31;100.00
8366;BME280;4220;42.502;24.188;2022-12-20T07:24:06;97047.69;;;-0.55;100.00
8366;BME280;4220;42.502;24.188;2022-12-20T07:26:33;97050.19;;;-0.54;100.00
8366;BME280;4220;42.502;24.188;2022-12-20T07:29:00;97044.75;;;-0.38;100.00
8366;BME280;4220;42.502;24.188;2022-12-20T07:31:28;97059.22;;;-0.22;100.00
8366;BME280;4220;42.502;24.188;2022-12-20T07:33:55;97049.72;;;-0.10;100.00
8366;BME280;4220;42.502;24.188;2022-12-20T07:36:22;97055.00;;;0.01;100.00
8366;BME280;4220;42.502;24.188;2022-12-20T07:38:49;97053.28;;;0.13;100.00
8366;BME280;4220;42.502;24.188;2022-12-20T07:41:16;97022.22;;;0.10;100.00
8366;BME280;4220;42.502;24.188;2022-12-20T07:43:43;97053.56;;;0.44;100.00
8366;BME280;4220;42.502;24.188;2022-12-20T07:46:12;97049.84;;;0.59;100.00
8366;BME280;4220;42.502;24.188;2022-12-20T07:48:41;97054.16;;;0.72;100.00
8366;BME280;4220;42.502;24.188;2022-12-20T07:51:11;97002.91;;;0.47;100.00
8366;BME280;4220;42.502;24.188;2022-12-20T07:53:43;97043.59;;;0.73;100.00
8366;BME280;4220;42.502;24.188;2022-12-20T07:56:12;97044.53;;;0.72;100.00
8366;BME280;4220;42.502;24.188;2022-12-20T07:58:41;97047.09;;;0.85;100.00
8366;BME280;4220;42.502;24.188;2022-12-20T08:01:09;97042.13;;;0.93;100.00
8366;BME280;4220;42.502;24.188;2022-12-20T08:03:40;97038.31;;;0.97;99.90
8366;BME280;4220;42.502;24.188;2022-12-20T08:06:10;97036.19;;;1.02;98.57
8366;BME280;4220;42.502;24.188;2022-12-20T08:08:41;97047.84;;;0.98;98.13
8366;BME280;4220;42.502;24.188;2022-12-20T08:11:10;97046.16;;;0.97;98.25
8366;BME280;4220;42.502;24.188;2022-12-20T08:13:38;97046.50;;;0.92;98.01
8366;BME280;4220;42.502;24.188;2022-12-20T08:16:06;97046.63;;;0.91;98.25
8366;BME280;4220;42.502;24.188;2022-12-20T08:18:33;97041.78;;;0.62;99.92
8366;BME280;4220;42.502;24.188;2022-12-20T08:20:59;97035.91;;;0.48;100.00
8366;BME280;4220;42.502;24.188;2022-12-20T08:23:28;97029.91;;;0.35;100.00
8366;BME280;4220;42.502;24.188;2022-12-20T08:25:54;97034.22;;;0.47;100.00
8366;BME280;4220;42.502;24.188;2022-12-20T08:28:22;97035.63;;;0.63;100.00
8366;BME280;4220;42.502;24.188;2022-12-20T08:30:49;97032.31;;;0.73;100.00
8366;BME280;4220;42.502;24.188;2022-12-20T08:33:16;97041.50;;;0.78;100.00
8366;BME280;4220;42.502;24.188;2022-12-20T08:35:43;97029.06;;;1.04;100.00
8366;BME280;4220;42.502;24.188;2022-12-20T08:38:10;97031.47;;;0.96;100.00
8366;BME280;4220;42.502;24.188;2022-12-20T08:40:38;97026.94;;;0.98;100.00
8366;BME280;4220;42.502;24.188;2022-12-20T08:43:05;97020.91;;;1.19;100.00
8366;BME280;4220;42.502;24.188;2022-12-20T08:45:31;97018.19;;;1.32;100.00
8366;BME280;4220;42.502;24.188;2022-12-20T08:47:58;97018.44;;;1.51;100.00
8366;BME280;4220;42.502;24.188;2022-12-20T08:50:25;97018.09;;;1.67;100.00
8366;BME280;4220;42.502;24.188;2022-12-20T08:52:52;97009.63;;;1.85;98.26
8366;BME280;4220;42.502;24.188;2022-12-20T08:55:19;97015.66;;;1.97;98.69
8366;BME280;4220;42.502;24.188;2022-12-20T08:57:47;97006.13;;;2.07;98.63
8366;BME280;4220;42.502;24.188;2022-12-20T09:00:14;97006.34;;;2.15;97.65
8366;BME280;4220;42.502;24.188;2022-12-20T09:02:41;97009.84;;;2.36;96.16
8366;BME280;4220;42.502;24.188;2022-12-20T09:05:09;97000.66;;;2.53;95.51
8366;BME280;4220;42.502;24.188;2022-12-20T09:07:35;97005.44;;;2.69;94.95
8366;BME280;4220;42.502;24.188;2022-12-20T09:10:03;97002.06;;;2.78;94.89
8366;BME280;4220;42.502;24.188;2022-12-20T09:12:30;96994.28;;;2.87;94.20
8366;BME280;4220;42.502;24.188;2022-12-20T09:14:58;96982.72;;;2.90;95.36
8366;BME280;4220;42.502;24.188;2022-12-20T09:17:25;96989.66;;;3.00;94.58
8366;BME280;4220;42.502;24.188;2022-12-20T09:19:51;96985.59;;;2.87;93.43
8366;BME280;4220;42.502;24.188;2022-12-20T09:22:19;96944.47;;;2.67;94.07
8366;BME280;4220;42.502;24.188;2022-12-20T09:24:46;96970.81;;;2.86;94.11
8366;BME280;4220;42.502;24.188;2022-12-20T09:27:13;96963.00;;;2.95;94.37
8366;BME280;4220;42.502;24.188;2022-12-20T09:29:40;96956.69;;;2.77;93.09
8366;BME280;4220;42.502;24.188;2022-12-20T09:32:08;96962.00;;;2.87;94.19
8366;BME280;4220;42.502;24.188;2022-12-20T09:34:35;96962.09;;;3.06;93.72
8366;BME280;4220;42.502;24.188;2022-12-20T09:37:02;96952.75;;;3.13;93.63
8366;BME280;4220;42.502;24.188;2022-12-20T09:39:29;96963.44;;;3.21;92.95
8366;BME280;4220;42.502;24.188;2022-12-20T09:41:56;96951.06;;;3.33;90.63
8366;BME280;4220;42.502;24.188;2022-12-20T09:44:27;96945.44;;;3.47;89.98
8366;BME280;4220;42.502;24.188;2022-12-20T09:46:58;96947.59;;;3.62;90.21
8366;BME280;4220;42.502;24.188;2022-12-20T09:49:30;96940.16;;;3.77;89.86
8366;BME280;4220;42.502;24.188;2022-12-20T09:52:18;96913.66;;;3.80;88.31
8366;BME280;4220;42.502;24.188;2022-12-20T09:54:55;96914.91;;;3.76;87.69
8366;BME280;4220;42.502;24.188;2022-12-20T09:57:31;96925.63;;;3.54;88.45
8366;BME280;4220;42.502;24.188;2022-12-20T10:00:11;96899.94;;;3.67;88.13
8366;BME280;4220;42.502;24.188;2022-12-20T10:02:39;96903.03;;;3.91;88.64
8366;BME280;4220;42.502;24.188;2022-12-20T10:05:12;96893.69;;;4.08;87.22
8366;BME280;4220;42.502;24.188;2022-12-20T10:07:45;96899.06;;;4.35;87.09
8366;BME280;4220;42.502;24.188;2022-12-20T10:10:30;96892.50;;;4.68;86.71
8366;BME280;4220;42.502;24.188;2022-12-20T10:13:12;96878.53;;;4.86;85.92
8366;BME280;4220;42.502;24.188;2022-12-20T10:15:50;96880.38;;;5.13;84.89
8366;BME280;4220;42.502;24.188;2022-12-20T10:18:35;96875.19;;;5.21;85.71
8366;BME280;4220;42.502;24.188;2022-12-20T10:21:16;96865.66;;;5.20;85.71
8366;BME280;4220;42.502;24.188;2022-12-20T10:23:53;96820.47;;;4.97;85.77
8366;BME280;4220;42.502;24.188;2022-12-20T10:26:23;96854.63;;;5.07;86.34
8366;BME280;4220;42.502;24.188;2022-12-20T10:28:50;96851.19;;;4.97;86.60
8366;BME280;4220;42.502;24.188;2022-12-20T10:31:17;96850.22;;;5.07;86.63
8366;BME280;4220;42.502;24.188;2022-12-20T10:33:45;96832.31;;;5.20;85.88
8366;BME280;4220;42.502;24.188;2022-12-20T10:36:24;96837.25;;;5.23;86.53
8366;BME280;4220;42.502;24.188;2022-12-20T10:38:53;96834.78;;;5.22;85.31
8366;BME280;4220;42.502;24.188;2022-12-20T10:41:22;96831.22;;;5.13;86.14
8366;BME280;4220;42.502;24.188;2022-12-20T10:43:56;96819.38;;;5.00;85.99
8366;BME280;4220;42.502;24.188;2022-12-20T10:46:34;96811.19;;;5.03;86.75
8366;BME280;4220;42.502;24.188;2022-12-20T10:49:30;96814.34;;;5.06;86.49
8366;BME280;4220;42.502;24.188;2022-12-20T10:52:00;96768.34;;;4.93;86.19
8366;BME280;4220;42.502;24.188;2022-12-20T10:54:31;96803.69;;;5.35;85.54
8366;BME280;4220;42.502;24.188;2022-12-20T10:56:59;96793.31;;;5.34;83.88
8366;BME280;4220;42.502;24.188;2022-12-20T10:59:31;96792.94;;;5.46;83.94
8366;BME280;4220;42.502;24.188;2022-12-20T11:01:59;96747.31;;;5.20;84.00
8366;BME280;4220;42.502;24.188;2022-12-20T11:04:29;96784.78;;;5.49;84.11
8366;BME280;4220;42.502;24.188;2022-12-20T11:06:59;96779.16;;;5.62;83.96
8366;BME280;4220;42.502;24.188;2022-12-20T11:09:29;96777.09;;;5.56;84.20
8366;BME280;4220;42.502;24.188;2022-12-20T11:11:57;96777.03;;;5.48;84.45
8366;BME280;4220;42.502;24.188;2022-12-20T11:14:25;96773.44;;;5.66;84.25
8366;BME280;4220;42.502;24.188;2022-12-20T11:16:53;96765.66;;;5.92;83.79
8366;BME280;4220;42.502;24.188;2022-12-20T11:19:45;96760.59;;;5.99;82.36
8366;BME280;4220;42.502;24.188;2022-12-20T11:22:28;96762.22;;;6.00;82.34
8366;BME280;4220;42.502;24.188;2022-12-20T11:25:06;96741.69;;;6.03;81.45
8366;BME280;4220;42.502;24.188;2022-12-20T11:27:50;96753.97;;;5.95;82.18
8366;BME280;4220;42.502;24.188;2022-12-20T11:30:24;96745.63;;;5.99;82.12
8366;BME280;4220;42.502;24.188;2022-12-20T11:33:05;96740.84;;;6.03;82.21
8366;BME280;4220;42.502;24.188;2022-12-20T11:35:46;96742.53;;;6.29;81.84
8366;BME280;4220;42.502;24.188;2022-12-20T11:38:29;96732.88;;;6.38;82.02
8366;BME280;4220;42.502;24.188;2022-12-20T11:41:09;96738.75;;;6.57;81.57
8366;BME280;4220;42.502;24.188;2022-12-20T11:43:58;96730.63;;;6.77;80.21
8366;BME280;4220;42.502;24.188;2022-12-20T11:46:35;96725.91;;;6.96;79.36
8366;BME280;4220;42.502;24.188;2022-12-20T11:49:28;96722.91;;;7.33;79.36
8366;BME280;4220;42.502;24.188;2022-12-20T11:52:03;96714.69;;;7.44;78.93
8366;BME280;4220;42.502;24.188;2022-12-20T11:54:37;96707.41;;;7.54;78.34
8366;BME280;4220;42.502;24.188;2022-12-20T11:57:12;96705.63;;;7.63;78.47
8366;BME280;4220;42.502;24.188;2022-12-20T11:59:44;96699.19;;;7.81;77.90
8366;BME280;4220;42.502;24.188;2022-12-20T12:02:15;96686.47;;;7.77;76.30
8366;BME280;4220;42.502;24.188;2022-12-20T12:04:49;96689.63;;;7.64;75.00
8366;BME280;4220;42.502;24.188;2022-12-20T12:07:22;96698.03;;;7.60;76.30
8366;BME280;4220;42.502;24.188;2022-12-20T12:09:56;96695.38;;;7.60;76.92
8366;BME280;4220;42.502;24.188;2022-12-20T12:12:26;96682.19;;;7.68;75.98
8366;BME280;4220;42.502;24.188;2022-12-20T12:14:59;96686.34;;;7.78;75.55
8366;BME280;4220;42.502;24.188;2022-12-20T12:17:42;96691.09;;;8.15;75.14
8366;BME280;4220;42.502;24.188;2022-12-20T12:20:21;96690.44;;;8.37;73.74
8366;BME280;4220;42.502;24.188;2022-12-20T12:22:53;96683.47;;;8.52;73.05
8366;BME280;4220;42.502;24.188;2022-12-20T12:25:25;96675.25;;;8.78;73.46
8366;BME280;4220;42.502;24.188;2022-12-20T12:27:52;96679.91;;;9.07;72.53
8366;BME280;4220;42.502;24.188;2022-12-20T12:30:19;96637.25;;;9.02;72.59
8366;BME280;4220;42.502;24.188;2022-12-20T12:32:51;96634.66;;;9.25;71.93
8366;BME280;4220;42.502;24.188;2022-12-20T12:35:50;96672.63;;;9.62;70.69
8366;BME280;4220;42.502;24.188;2022-12-20T12:38:49;96677.00;;;9.25;70.76
8366;BME280;4220;42.502;24.188;2022-12-20T12:41:35;96674.22;;;8.87;72.13
8366;BME280;4220;42.502;24.188;2022-12-20T12:44:29;96638.19;;;8.47;74.08
8366;BME280;4220;42.502;24.188;2022-12-20T12:47:01;96655.34;;;8.60;74.39
8366;BME280;4220;42.502;24.188;2022-12-20T12:49:30;96669.19;;;8.70;73.89
8366;BME280;4220;42.502;24.188;2022-12-20T12:52:00;96665.91;;;8.60;73.80
8366;BME280;4220;42.502;24.188;2022-12-20T12:54:33;96663.75;;;8.55;74.64
8366;BME280;4220;42.502;24.188;2022-12-20T12:57:06;96664.88;;;8.69;73.27
8366;BME280;4220;42.502;24.188;2022-12-20T12:59:41;96655.66;;;8.65;72.99
8366;BME280;4220;42.502;24.188;2022-12-20T13:02:25;96656.81;;;8.62;73.41
8366;BME280;4220;42.502;24.188;2022-12-20T13:05:01;96659.47;;;8.62;73.54
8366;BME280;4220;42.502;24.188;2022-12-20T13:07:46;96664.78;;;8.93;73.27
8366;BME280;4220;42.502;24.188;2022-12-20T13:13:33;96662.81;;;9.48;73.02
8366;BME280;4220;42.502;24.188;2022-12-20T13:16:27;96665.97;;;9.66;73.64
8366;BME280;4220;42.502;24.188;2022-12-20T13:19:01;96668.81;;;9.65;73.29
8366;BME280;4220;42.502;24.188;2022-12-20T13:24:35;96665.97;;;9.44;73.85
8366;BME280;4220;42.502;24.188;2022-12-20T13:27:15;96667.38;;;9.32;74.11
8366;BME280;4220;42.502;24.188;2022-12-20T13:29:59;96662.88;;;9.09;74.35
8366;BME280;4220;42.502;24.188;2022-12-20T13:35:43;96641.06;;;8.77;76.15
8366;BME280;4220;42.502;24.188;2022-12-20T13:38:38;96647.53;;;8.66;76.59
8366;BME280;4220;42.502;24.188;2022-12-20T13:41:11;96650.72;;;8.53;76.81
8366;BME280;4220;42.502;24.188;2022-12-20T13:43:44;96661.63;;;8.50;76.89